sensor_id;sensor_type;location;lat;lon;timestamp;P1;durP1;ratioP1;P2;durP2;ratioP2
19137;SDS011;68178;52.188;5.598;2023-03-14T00:02:16;20.35;;;7.20;;
19137;SDS011;68178;52.188;5.598;2023-03-14T00:04:42;19.38;;;8.13;;
19137;SDS011;68178;52.188;5.598;2023-03-14T00:07:09;20.30;;;8.68;;
19137;SDS011;68178;52.188;5.598;2023-03-14T00:09:36;22.30;;;8.13;;
19137;SDS011;68178;52.188;5.598;2023-03-14T00:12:02;22.13;;;7.82;;
19137;SDS011;68178;52.188;5.598;2023-03-14T00:14:28;22.95;;;7.78;;
19137;SDS011;68178;52.188;5.598;2023-03-14T00:16:54;24.05;;;7.85;;
19137;SDS011;68178;52.188;5.598;2023-03-14T00:19:20;18.67;;;6.82;;
19137;SDS011;68178;52.188;5.598;2023-03-14T00:21:46;20.02;;;7.60;;
19137;SDS011;68178;52.188;5.598;2023-03-14T00:24:12;19.52;;;6.57;;
19137;SDS011;68178;52.188;5.598;2023-03-14T00:26:38;24.15;;;6.32;;
19137;SDS011;68178;52.188;5.598;2023-03-14T00:29:04;20.02;;;6.80;;
19137;SDS011;68178;52.188;5.598;2023-03-14T00:31:30;22.30;;;6.82;;
19137;SDS011;68178;52.188;5.598;2023-03-14T00:33:56;22.58;;;5.85;;
19137;SDS011;68178;52.188;5.598;2023-03-14T00:36:22;18.33;;;5.30;;
19137;SDS011;68178;52.188;5.598;2023-03-14T00:38:49;19.77;;;5.82;;
19137;SDS011;68178;52.188;5.598;2023-03-14T00:41:20;21.13;;;6.00;;
19137;SDS011;68178;52.188;5.598;2023-03-14T00:43:47;14.02;;;4.43;;
19137;SDS011;68178;52.188;5.598;2023-03-14T00:46:13;18.90;;;4.80;;
19137;SDS011;68178;52.188;5.598;2023-03-14T00:48:39;19.55;;;4.38;;
19137;SDS011;68178;52.188;5.598;2023-03-14T00:51:06;13.18;;;4.30;;
19137;SDS011;68178;52.188;5.598;2023-03-14T00:53:37;17.65;;;4.53;;
19137;SDS011;68178;52.188;5.598;2023-03-14T00:56:04;15.25;;;3.22;;
19137;SDS011;68178;52.188;5.598;2023-03-14T00:58:30;13.73;;;3.28;;
19137;SDS011;68178;52.188;5.598;2023-03-14T01:00:56;14.57;;;3.08;;
19137;SDS011;68178;52.188;5.598;2023-03-14T01:03:22;12.20;;;3.08;;
19137;SDS011;68178;52.188;5.598;2023-03-14T01:05:49;13.18;;;4.03;;
19137;SDS011;68178;52.188;5.598;2023-03-14T01:08:15;14.75;;;3.42;;
19137;SDS011;68178;52.188;5.598;2023-03-14T01:10:41;13.52;;;3.90;;
19137;SDS011;68178;52.188;5.598;2023-03-14T01:13:13;13.40;;;2.72;;
19137;SDS011;68178;52.188;5.598;2023-03-14T01:15:39;14.98;;;3.72;;
19137;SDS011;68178;52.188;5.598;2023-03-14T01:18:05;14.50;;;3.55;;
19137;SDS011;68178;52.188;5.598;2023-03-14T01:20:31;14.20;;;3.05;;
19137;SDS011;68178;52.188;5.598;2023-03-14T01:22:57;9.25;;;2.92;;
19137;SDS011;68178;52.188;5.598;2023-03-14T01:25:23;11.88;;;3.55;;
19137;SDS011;68178;52.188;5.598;2023-03-14T01:27:49;10.55;;;3.20;;
19137;SDS011;68178;52.188;5.598;2023-03-14T01:30:15;8.50;;;2.78;;
19137;SDS011;68178;52.188;5.598;2023-03-14T01:32:44;11.00;;;3.13;;
19137;SDS011;68178;52.188;5.598;2023-03-14T01:35:10;11.65;;;2.95;;
19137;SDS011;68178;52.188;5.598;2023-03-14T01:37:36;11.13;;;2.92;;
19137;SDS011;68178;52.188;5.598;2023-03-14T01:40:02;9.80;;;3.25;;
19137;SDS011;68178;52.188;5.598;2023-03-14T01:42:30;13.60;;;2.97;;
19137;SDS011;68178;52.188;5.598;2023-03-14T01:44:57;9.23;;;3.55;;
19137;SDS011;68178;52.188;5.598;2023-03-14T01:47:24;10.60;;;3.42;;
19137;SDS011;68178;52.188;5.598;2023-03-14T01:50:11;12.23;;;3.75;;
19137;SDS011;68178;52.188;5.598;2023-03-14T01:52:36;15.73;;;3.45;;
19137;SDS011;68178;52.188;5.598;2023-03-14T01:55:06;15.25;;;3.50;;
19137;SDS011;68178;52.188;5.598;2023-03-14T01:57:34;8.57;;;2.90;;
19137;SDS011;68178;52.188;5.598;2023-03-14T02:00:04;16.05;;;3.92;;
19137;SDS011;68178;52.188;5.598;2023-03-14T02:02:36;11.93;;;2.85;;
19137;SDS011;68178;52.188;5.598;2023-03-14T02:05:03;11.98;;;3.20;;
19137;SDS011;68178;52.188;5.598;2023-03-14T02:07:33;14.85;;;3.42;;
19137;SDS011;68178;52.188;5.598;2023-03-14T02:10:01;12.70;;;2.92;;
19137;SDS011;68178;52.188;5.598;2023-03-14T02:12:28;14.40;;;3.80;;
19137;SDS011;68178;52.188;5.598;2023-03-14T02:14:54;10.48;;;2.95;;
19137;SDS011;68178;52.188;5.598;2023-03-14T02:17:20;14.60;;;3.08;;
19137;SDS011;68178;52.188;5.598;2023-03-14T02:22:16;10.73;;;2.83;;
19137;SDS011;68178;52.188;5.598;2023-03-14T02:24:45;10.88;;;2.78;;
19137;SDS011;68178;52.188;5.598;2023-03-14T02:27:13;7.88;;;2.50;;
19137;SDS011;68178;52.188;5.598;2023-03-14T02:29:45;10.57;;;2.78;;
19137;SDS011;68178;52.188;5.598;2023-03-14T02:32:11;11.25;;;3.05;;
19137;SDS011;68178;52.188;5.598;2023-03-14T02:34:38;10.60;;;3.00;;
19137;SDS011;68178;52.188;5.598;2023-03-14T02:37:04;13.95;;;2.83;;
19137;SDS011;68178;52.188;5.598;2023-03-14T02:39:38;13.50;;;3.47;;
19137;SDS011;68178;52.188;5.598;2023-03-14T02:42:04;10.15;;;2.67;;
19137;SDS011;68178;52.188;5.598;2023-03-14T02:44:30;10.63;;;2.72;;
19137;SDS011;68178;52.188;5.598;2023-03-14T02:46:56;12.30;;;2.95;;
19137;SDS011;68178;52.188;5.598;2023-03-14T02:49:22;10.27;;;3.03;;
19137;SDS011;68178;52.188;5.598;2023-03-14T02:51:49;11.15;;;3.53;;
19137;SDS011;68178;52.188;5.598;2023-03-14T02:54:15;9.88;;;3.15;;
19137;SDS011;68178;52.188;5.598;2023-03-14T02:56:41;11.05;;;3.90;;
19137;SDS011;68178;52.188;5.598;2023-03-14T02:59:07;9.90;;;3.80;;
19137;SDS011;68178;52.188;5.598;2023-03-14T03:01:34;9.32;;;4.07;;
19137;SDS011;68178;52.188;5.598;2023-03-14T03:04:00;12.48;;;3.90;;
19137;SDS011;68178;52.188;5.598;2023-03-14T03:06:26;14.32;;;5.13;;
19137;SDS011;68178;52.188;5.598;2023-03-14T03:08:52;10.57;;;4.53;;
19137;SDS011;68178;52.188;5.598;2023-03-14T03:11:18;6.90;;;4.07;;
19137;SDS011;68178;52.188;5.598;2023-03-14T03:13:44;9.32;;;4.30;;
19137;SDS011;68178;52.188;5.598;2023-03-14T03:16:10;16.08;;;5.63;;
19137;SDS011;68178;52.188;5.598;2023-03-14T03:18:38;8.60;;;4.47;;
19137;SDS011;68178;52.188;5.598;2023-03-14T03:21:04;15.50;;;4.80;;
19137;SDS011;68178;52.188;5.598;2023-03-14T03:23:30;11.98;;;4.75;;
19137;SDS011;68178;52.188;5.598;2023-03-14T03:25:57;9.05;;;4.70;;
19137;SDS011;68178;52.188;5.598;2023-03-14T03:28:23;10.88;;;4.82;;
19137;SDS011;68178;52.188;5.598;2023-03-14T03:30:49;13.27;;;5.32;;
19137;SDS011;68178;52.188;5.598;2023-03-14T03:33:15;14.77;;;3.88;;
19137;SDS011;68178;52.188;5.598;2023-03-14T03:35:41;10.52;;;4.22;;
19137;SDS011;68178;52.188;5.598;2023-03-14T03:38:08;12.10;;;4.93;;
19137;SDS011;68178;52.188;5.598;2023-03-14T03:40:34;12.80;;;4.05;;
19137;SDS011;68178;52.188;5.598;2023-03-14T03:43:00;13.57;;;4.50;;
19137;SDS011;68178;52.188;5.598;2023-03-14T03:45:26;14.18;;;5.03;;
19137;SDS011;68178;52.188;5.598;2023-03-14T03:47:52;13.07;;;4.30;;
19137;SDS011;68178;52.188;5.598;2023-03-14T03:50:18;15.02;;;4.15;;
19137;SDS011;68178;52.188;5.598;2023-03-14T03:52:44;15.05;;;3.75;;
19137;SDS011;68178;52.188;5.598;2023-03-14T03:55:10;12.32;;;3.38;;
19137;SDS011;68178;52.188;5.598;2023-03-14T03:57:35;13.38;;;4.30;;
19137;SDS011;68178;52.188;5.598;2023-03-14T04:00:02;13.98;;;4.10;;
19137;SDS011;68178;52.188;5.598;2023-03-14T04:02:29;14.73;;;4.00;;
19137;SDS011;68178;52.188;5.598;2023-03-14T04:04:55;14.88;;;5.00;;
19137;SDS011;68178;52.188;5.598;2023-03-14T04:07:21;13.30;;;4.40;;
19137;SDS011;68178;52.188;5.598;2023-03-14T04:09:47;12.77;;;3.72;;
19137;SDS011;68178;52.188;5.598;2023-03-14T04:12:13;10.85;;;4.18;;
19137;SDS011;68178;52.188;5.598;2023-03-14T04:14:39;11.40;;;3.85;;
19137;SDS011;68178;52.188;5.598;2023-03-14T04:17:06;13.20;;;3.60;;
19137;SDS011;68178;52.188;5.598;2023-03-14T04:19:32;11.50;;;3.50;;
19137;SDS011;68178;52.188;5.598;2023-03-14T04:21:58;9.95;;;3.08;;
19137;SDS011;68178;52.188;5.598;2023-03-14T04:24:24;15.85;;;4.72;;
19137;SDS011;68178;52.188;5.598;2023-03-14T04:26:50;10.85;;;3.50;;
19137;SDS011;68178;52.188;5.598;2023-03-14T04:29:16;12.60;;;3.28;;
19137;SDS011;68178;52.188;5.598;2023-03-14T04:31:42;10.32;;;3.67;;
19137;SDS011;68178;52.188;5.598;2023-03-14T04:34:10;11.57;;;2.97;;
19137;SDS011;68178;52.188;5.598;2023-03-14T04:36:36;10.25;;;3.20;;
19137;SDS011;68178;52.188;5.598;2023-03-14T04:39:02;16.90;;;3.80;;
19137;SDS011;68178;52.188;5.598;2023-03-14T04:41:29;15.07;;;3.42;;
19137;SDS011;68178;52.188;5.598;2023-03-14T04:43:55;8.75;;;2.80;;
19137;SDS011;68178;52.188;5.598;2023-03-14T04:46:21;10.57;;;3.30;;
19137;SDS011;68178;52.188;5.598;2023-03-14T04:48:47;13.88;;;3.45;;
19137;SDS011;68178;52.188;5.598;2023-03-14T04:51:13;13.98;;;3.33;;
19137;SDS011;68178;52.188;5.598;2023-03-14T04:53:39;14.23;;;3.42;;
19137;SDS011;68178;52.188;5.598;2023-03-14T04:56:06;12.27;;;3.00;;
19137;SDS011;68178;52.188;5.598;2023-03-14T04:58:32;16.35;;;3.38;;
19137;SDS011;68178;52.188;5.598;2023-03-14T05:01:01;9.80;;;3.72;;
19137;SDS011;68178;52.188;5.598;2023-03-14T05:03:27;10.60;;;3.40;;
19137;SDS011;68178;52.188;5.598;2023-03-14T05:05:53;7.78;;;3.63;;
19137;SDS011;68178;52.188;5.598;2023-03-14T05:08:20;9.77;;;3.45;;
19137;SDS011;68178;52.188;5.598;2023-03-14T05:10:51;14.30;;;3.42;;
19137;SDS011;68178;52.188;5.598;2023-03-14T05:13:17;12.38;;;3.75;;
19137;SDS011;68178;52.188;5.598;2023-03-14T05:15:43;12.43;;;3.50;;
19137;SDS011;68178;52.188;5.598;2023-03-14T05:18:10;13.43;;;3.83;;
19137;SDS011;68178;52.188;5.598;2023-03-14T05:20:35;10.73;;;4.50;;
19137;SDS011;68178;52.188;5.598;2023-03-14T05:23:01;15.23;;;5.18;;
19137;SDS011;68178;52.188;5.598;2023-03-14T05:25:27;11.60;;;4.68;;
19137;SDS011;68178;52.188;5.598;2023-03-14T05:27:54;15.32;;;5.28;;
19137;SDS011;68178;52.188;5.598;2023-03-14T05:30:20;15.90;;;4.50;;
19137;SDS011;68178;52.188;5.598;2023-03-14T05:32:47;13.15;;;4.18;;
19137;SDS011;68178;52.188;5.598;2023-03-14T05:35:13;13.65;;;5.00;;
19137;SDS011;68178;52.188;5.598;2023-03-14T05:37:39;10.73;;;4.70;;
19137;SDS011;68178;52.188;5.598;2023-03-14T05:40:05;14.63;;;5.18;;
19137;SDS011;68178;52.188;5.598;2023-03-14T05:42:32;13.38;;;5.05;;
19137;SDS011;68178;52.188;5.598;2023-03-14T05:44:58;12.90;;;5.10;;
19137;SDS011;68178;52.188;5.598;2023-03-14T05:47:24;16.50;;;5.63;;
19137;SDS011;68178;52.188;5.598;2023-03-14T05:49:50;18.33;;;6.80;;
19137;SDS011;68178;52.188;5.598;2023-03-14T05:52:16;15.52;;;6.10;;
19137;SDS011;68178;52.188;5.598;2023-03-14T05:54:42;12.55;;;6.68;;
19137;SDS011;68178;52.188;5.598;2023-03-14T05:57:08;13.70;;;6.47;;
19137;SDS011;68178;52.188;5.598;2023-03-14T05:59:34;14.23;;;7.10;;
19137;SDS011;68178;52.188;5.598;2023-03-14T06:02:00;16.48;;;7.05;;
19137;SDS011;68178;52.188;5.598;2023-03-14T06:04:29;16.52;;;6.65;;
19137;SDS011;68178;52.188;5.598;2023-03-14T06:06:55;11.05;;;5.93;;
19137;SDS011;68178;52.188;5.598;2023-03-14T06:09:21;11.32;;;6.43;;
19137;SDS011;68178;52.188;5.598;2023-03-14T06:11:48;17.05;;;6.78;;
19137;SDS011;68178;52.188;5.598;2023-03-14T06:14:14;15.18;;;7.13;;
19137;SDS011;68178;52.188;5.598;2023-03-14T06:16:40;16.45;;;7.70;;
19137;SDS011;68178;52.188;5.598;2023-03-14T06:19:06;16.90;;;6.78;;
19137;SDS011;68178;52.188;5.598;2023-03-14T06:21:32;14.60;;;7.68;;
19137;SDS011;68178;52.188;5.598;2023-03-14T06:23:58;19.90;;;8.73;;
19137;SDS011;68178;52.188;5.598;2023-03-14T06:26:24;18.85;;;8.20;;
19137;SDS011;68178;52.188;5.598;2023-03-14T06:28:50;20.08;;;7.78;;
19137;SDS011;68178;52.188;5.598;2023-03-14T06:31:16;17.70;;;8.35;;
19137;SDS011;68178;52.188;5.598;2023-03-14T06:33:42;18.95;;;8.73;;
19137;SDS011;68178;52.188;5.598;2023-03-14T06:36:08;18.50;;;8.20;;
19137;SDS011;68178;52.188;5.598;2023-03-14T06:38:34;15.73;;;8.10;;
19137;SDS011;68178;52.188;5.598;2023-03-14T06:41:03;22.75;;;9.13;;
19137;SDS011;68178;52.188;5.598;2023-03-14T06:43:29;19.17;;;9.77;;
19137;SDS011;68178;52.188;5.598;2023-03-14T06:45:55;21.02;;;9.95;;
19137;SDS011;68178;52.188;5.598;2023-03-14T06:48:25;20.05;;;9.77;;
19137;SDS011;68178;52.188;5.598;2023-03-14T06:50:51;19.00;;;11.23;;
19137;SDS011;68178;52.188;5.598;2023-03-14T06:53:17;20.75;;;10.32;;
19137;SDS011;68178;52.188;5.598;2023-03-14T06:55:43;22.63;;;10.80;;
19137;SDS011;68178;52.188;5.598;2023-03-14T06:58:10;7.32;;;4.13;;
19137;SDS011;68178;52.188;5.598;2023-03-14T07:00:39;6.13;;;2.40;;
19137;SDS011;68178;52.188;5.598;2023-03-14T07:03:05;4.68;;;1.90;;
19137;SDS011;68178;52.188;5.598;2023-03-14T07:05:31;5.15;;;1.80;;
19137;SDS011;68178;52.188;5.598;2023-03-14T07:07:57;4.00;;;1.60;;
19137;SDS011;68178;52.188;5.598;2023-03-14T07:10:23;5.82;;;2.40;;
19137;SDS011;68178;52.188;5.598;2023-03-14T07:12:49;6.38;;;2.47;;
19137;SDS011;68178;52.188;5.598;2023-03-14T07:15:16;4.00;;;1.88;;
19137;SDS011;68178;52.188;5.598;2023-03-14T07:17:42;10.02;;;2.40;;
19137;SDS011;68178;52.188;5.598;2023-03-14T07:20:08;3.22;;;1.52;;
19137;SDS011;68178;52.188;5.598;2023-03-14T07:22:34;2.40;;;1.05;;
19137;SDS011;68178;52.188;5.598;2023-03-14T07:25:00;4.90;;;1.20;;
19137;SDS011;68178;52.188;5.598;2023-03-14T07:27:26;3.38;;;1.50;;
19137;SDS011;68178;52.188;5.598;2023-03-14T07:29:52;2.97;;;1.42;;
19137;SDS011;68178;52.188;5.598;2023-03-14T07:32:18;4.32;;;1.40;;
19137;SDS011;68178;52.188;5.598;2023-03-14T07:34:44;3.38;;;1.40;;
19137;SDS011;68178;52.188;5.598;2023-03-14T07:37:10;2.95;;;1.20;;
19137;SDS011;68178;52.188;5.598;2023-03-14T07:39:36;3.70;;;1.30;;
19137;SDS011;68178;52.188;5.598;2023-03-14T07:42:02;1.23;;;1.08;;
19137;SDS011;68178;52.188;5.598;2023-03-14T07:44:28;2.42;;;1.20;;
19137;SDS011;68178;52.188;5.598;2023-03-14T07:46:54;1.85;;;1.23;;
19137;SDS011;68178;52.188;5.598;2023-03-14T07:49:20;4.82;;;1.90;;
19137;SDS011;68178;52.188;5.598;2023-03-14T07:51:49;4.65;;;2.05;;
19137;SDS011;68178;52.188;5.598;2023-03-14T07:54:15;4.28;;;1.60;;
19137;SDS011;68178;52.188;5.598;2023-03-14T07:56:41;3.03;;;1.88;;
19137;SDS011;68178;52.188;5.598;2023-03-14T07:59:07;4.90;;;1.38;;
19137;SDS011;68178;52.188;5.598;2023-03-14T08:01:33;8.70;;;1.67;;
19137;SDS011;68178;52.188;5.598;2023-03-14T08:03:59;6.57;;;1.83;;
19137;SDS011;68178;52.188;5.598;2023-03-14T08:06:25;8.50;;;1.75;;
19137;SDS011;68178;52.188;5.598;2023-03-14T08:08:51;6.57;;;1.20;;
19137;SDS011;68178;52.188;5.598;2023-03-14T08:11:17;11.10;;;1.38;;
19137;SDS011;68178;52.188;5.598;2023-03-14T08:13:43;10.57;;;1.27;;
19137;SDS011;68178;52.188;5.598;2023-03-14T08:16:14;5.63;;;1.52;;
19137;SDS011;68178;52.188;5.598;2023-03-14T08:18:41;11.40;;;2.40;;
19137;SDS011;68178;52.188;5.598;2023-03-14T08:21:07;8.15;;;2.55;;
19137;SDS011;68178;52.188;5.598;2023-03-14T08:23:33;7.78;;;1.90;;
19137;SDS011;68178;52.188;5.598;2023-03-14T08:25:59;9.18;;;1.50;;
19137;SDS011;68178;52.188;5.598;2023-03-14T08:28:24;5.97;;;1.40;;
19137;SDS011;68178;52.188;5.598;2023-03-14T08:30:55;14.07;;;2.30;;
19137;SDS011;68178;52.188;5.598;2023-03-14T08:33:21;4.78;;;1.20;;
19137;SDS011;68178;52.188;5.598;2023-03-14T08:35:51;6.75;;;0.98;;
19137;SDS011;68178;52.188;5.598;2023-03-14T08:38:17;4.13;;;1.00;;
19137;SDS011;68178;52.188;5.598;2023-03-14T08:40:43;5.80;;;0.93;;
19137;SDS011;68178;52.188;5.598;2023-03-14T08:43:09;4.60;;;0.50;;
19137;SDS011;68178;52.188;5.598;2023-03-14T08:45:35;5.57;;;1.10;;
19137;SDS011;68178;52.188;5.598;2023-03-14T08:48:02;8.38;;;0.90;;
19137;SDS011;68178;52.188;5.598;2023-03-14T08:50:28;5.35;;;0.60;;
19137;SDS011;68178;52.188;5.598;2023-03-14T08:52:54;3.28;;;0.60;;
19137;SDS011;68178;52.188;5.598;2023-03-14T08:55:22;4.55;;;0.57;;
19137;SDS011;68178;52.188;5.598;2023-03-14T08:57:48;3.03;;;0.40;;
19137;SDS011;68178;52.188;5.598;2023-03-14T09:00:14;2.38;;;1.15;;
19137;SDS011;68178;52.188;5.598;2023-03-14T09:02:41;2.58;;;0.65;;
19137;SDS011;68178;52.188;5.598;2023-03-14T09:05:08;2.83;;;0.60;;
19137;SDS011;68178;52.188;5.598;2023-03-14T09:07:35;3.67;;;0.60;;
19137;SDS011;68178;52.188;5.598;2023-03-14T09:10:01;6.25;;;0.85;;
19137;SDS011;68178;52.188;5.598;2023-03-14T09:12:27;6.45;;;0.70;;
19137;SDS011;68178;52.188;5.598;2023-03-14T09:14:53;3.67;;;0.75;;
19137;SDS011;68178;52.188;5.598;2023-03-14T09:17:19;6.88;;;1.20;;
19137;SDS011;68178;52.188;5.598;2023-03-14T09:19:45;7.43;;;1.55;;
19137;SDS011;68178;52.188;5.598;2023-03-14T09:22:11;7.38;;;1.20;;
19137;SDS011;68178;52.188;5.598;2023-03-14T09:24:38;5.97;;;0.88;;
19137;SDS011;68178;52.188;5.598;2023-03-14T09:27:05;8.98;;;1.20;;
19137;SDS011;68178;52.188;5.598;2023-03-14T09:29:32;8.32;;;1.85;;
19137;SDS011;68178;52.188;5.598;2023-03-14T09:31:58;9.70;;;2.03;;
19137;SDS011;68178;52.188;5.598;2023-03-14T09:34:24;10.15;;;1.85;;
19137;SDS011;68178;52.188;5.598;2023-03-14T09:36:50;8.82;;;1.55;;
19137;SDS011;68178;52.188;5.598;2023-03-14T09:39:16;8.85;;;1.88;;
19137;SDS011;68178;52.188;5.598;2023-03-14T09:41:51;11.55;;;1.85;;
19137;SDS011;68178;52.188;5.598;2023-03-14T09:44:24;9.43;;;1.73;;
19137;SDS011;68178;52.188;5.598;2023-03-14T09:46:52;12.15;;;2.10;;
19137;SDS011;68178;52.188;5.598;2023-03-14T09:49:20;14.00;;;2.15;;
19137;SDS011;68178;52.188;5.598;2023-03-14T09:51:48;10.02;;;1.85;;
19137;SDS011;68178;52.188;5.598;2023-03-14T09:54:23;13.15;;;2.90;;
19137;SDS011;68178;52.188;5.598;2023-03-14T09:56:50;14.30;;;2.70;;
19137;SDS011;68178;52.188;5.598;2023-03-14T09:59:17;20.77;;;3.08;;
19137;SDS011;68178;52.188;5.598;2023-03-14T10:01:43;13.45;;;2.70;;
19137;SDS011;68178;52.188;5.598;2023-03-14T10:04:16;15.57;;;3.47;;
19137;SDS011;68178;52.188;5.598;2023-03-14T10:06:43;13.32;;;2.85;;
19137;SDS011;68178;52.188;5.598;2023-03-14T10:09:17;17.20;;;2.55;;
19137;SDS011;68178;52.188;5.598;2023-03-14T10:11:50;18.42;;;2.83;;
19137;SDS011;68178;52.188;5.598;2023-03-14T10:14:16;18.85;;;2.92;;
19137;SDS011;68178;52.188;5.598;2023-03-14T10:16:53;16.13;;;2.72;;
19137;SDS011;68178;52.188;5.598;2023-03-14T10:19:19;16.52;;;3.25;;
19137;SDS011;68178;52.188;5.598;2023-03-14T10:21:53;16.38;;;3.40;;
19137;SDS011;68178;52.188;5.598;2023-03-14T10:24:20;14.73;;;2.35;;
19137;SDS011;68178;52.188;5.598;2023-03-14T10:26:53;13.10;;;2.22;;
19137;SDS011;68178;52.188;5.598;2023-03-14T10:29:19;12.57;;;2.40;;
19137;SDS011;68178;52.188;5.598;2023-03-14T10:31:50;15.60;;;3.17;;
19137;SDS011;68178;52.188;5.598;2023-03-14T10:34:21;14.70;;;3.20;;
19137;SDS011;68178;52.188;5.598;2023-03-14T10:36:49;12.27;;;2.63;;
19137;SDS011;68178;52.188;5.598;2023-03-14T10:41:47;16.92;;;2.95;;
19137;SDS011;68178;52.188;5.598;2023-03-14T10:44:19;13.68;;;3.10;;
19137;SDS011;68178;52.188;5.598;2023-03-14T10:46:46;18.45;;;3.03;;
19137;SDS011;68178;52.188;5.598;2023-03-14T10:49:25;15.88;;;2.72;;
19137;SDS011;68178;52.188;5.598;2023-03-14T10:51:52;17.00;;;3.30;;
19137;SDS011;68178;52.188;5.598;2023-03-14T10:54:20;22.05;;;3.75;;
19137;SDS011;68178;52.188;5.598;2023-03-14T10:56:55;20.63;;;3.05;;
19137;SDS011;68178;52.188;5.598;2023-03-14T10:59:22;14.63;;;3.25;;
19137;SDS011;68178;52.188;5.598;2023-03-14T11:01:50;20.77;;;3.38;;
19137;SDS011;68178;52.188;5.598;2023-03-14T11:07:01;21.88;;;3.47;;
19137;SDS011;68178;52.188;5.598;2023-03-14T11:09:33;14.88;;;3.25;;
19137;SDS011;68178;52.188;5.598;2023-03-14T11:12:45;21.10;;;3.40;;
19137;SDS011;68178;52.188;5.598;2023-03-14T11:14:52;21.08;;;3.03;;
19137;SDS011;68178;52.188;5.598;2023-03-14T11:17:25;16.58;;;3.65;;
19137;SDS011;68178;52.188;5.598;2023-03-14T11:19:56;17.70;;;3.75;;
19137;SDS011;68178;52.188;5.598;2023-03-14T11:22:33;17.92;;;3.60;;
19137;SDS011;68178;52.188;5.598;2023-03-14T11:27:41;14.05;;;4.15;;
19137;SDS011;68178;52.188;5.598;2023-03-14T11:32:56;9.27;;;2.28;;
19137;SDS011;68178;52.188;5.598;2023-03-14T11:35:28;10.15;;;2.50;;
19137;SDS011;68178;52.188;5.598;2023-03-14T11:37:56;9.68;;;2.42;;
19137;SDS011;68178;52.188;5.598;2023-03-14T11:40:26;9.80;;;2.90;;
19137;SDS011;68178;52.188;5.598;2023-03-14T11:42:55;10.98;;;2.47;;
19137;SDS011;68178;52.188;5.598;2023-03-14T11:45:26;15.35;;;3.20;;
19137;SDS011;68178;52.188;5.598;2023-03-14T11:50:48;11.23;;;2.45;;
19137;SDS011;68178;52.188;5.598;2023-03-14T11:53:16;7.55;;;2.50;;
19137;SDS011;68178;52.188;5.598;2023-03-14T11:55:44;10.85;;;2.22;;
19137;SDS011;68178;52.188;5.598;2023-03-14T11:58:21;5.82;;;1.98;;
19137;SDS011;68178;52.188;5.598;2023-03-14T12:00:49;7.90;;;1.70;;
19137;SDS011;68178;52.188;5.598;2023-03-14T12:03:27;7.30;;;2.10;;
19137;SDS011;68178;52.188;5.598;2023-03-14T12:06:15;9.70;;;2.08;;
19137;SDS011;68178;52.188;5.598;2023-03-14T12:08:42;12.68;;;3.60;;
19137;SDS011;68178;52.188;5.598;2023-03-14T12:11:17;11.23;;;2.75;;
19137;SDS011;68178;52.188;5.598;2023-03-14T12:13:49;8.70;;;2.25;;
19137;SDS011;68178;52.188;5.598;2023-03-14T12:16:37;9.95;;;2.38;;
19137;SDS011;68178;52.188;5.598;2023-03-14T12:21:50;11.60;;;2.42;;
19137;SDS011;68178;52.188;5.598;2023-03-14T12:24:24;6.15;;;2.45;;
19137;SDS011;68178;52.188;5.598;2023-03-14T12:26:53;5.88;;;2.00;;
19137;SDS011;68178;52.188;5.598;2023-03-14T12:29:19;10.00;;;2.63;;
19137;SDS011;68178;52.188;5.598;2023-03-14T12:31:50;11.48;;;2.67;;
19137;SDS011;68178;52.188;5.598;2023-03-14T12:34:41;11.43;;;2.17;;
19137;SDS011;68178;52.188;5.598;2023-03-14T12:37:17;8.82;;;2.20;;
19137;SDS011;68178;52.188;5.598;2023-03-14T12:42:15;7.90;;;2.22;;
19137;SDS011;68178;52.188;5.598;2023-03-14T12:44:44;7.53;;;2.22;;
19137;SDS011;68178;52.188;5.598;2023-03-14T12:49:43;8.02;;;1.65;;
19137;SDS011;68178;52.188;5.598;2023-03-14T12:52:13;7.15;;;1.83;;
19137;SDS011;68178;52.188;5.598;2023-03-14T12:54:51;6.97;;;1.30;;
19137;SDS011;68178;52.188;5.598;2023-03-14T12:57:24;5.88;;;1.58;;
19137;SDS011;68178;52.188;5.598;2023-03-14T12:59:55;6.68;;;1.58;;
19137;SDS011;68178;52.188;5.598;2023-03-14T13:02:28;5.97;;;1.88;;
19137;SDS011;68178;52.188;5.598;2023-03-14T13:05:02;6.88;;;1.40;;
19137;SDS011;68178;52.188;5.598;2023-03-14T13:07:31;5.75;;;1.10;;
19137;SDS011;68178;52.188;5.598;2023-03-14T13:10:04;7.75;;;1.67;;
19137;SDS011;68178;52.188;5.598;2023-03-14T13:15:16;6.15;;;1.77;;
19137;SDS011;68178;52.188;5.598;2023-03-14T13:17:43;6.47;;;1.50;;
19137;SDS011;68178;52.188;5.598;2023-03-14T13:20:11;4.13;;;1.42;;
19137;SDS011;68178;52.188;5.598;2023-03-14T13:22:38;3.50;;;1.15;;
19137;SDS011;68178;52.188;5.598;2023-03-14T13:25:05;6.30;;;1.92;;
19137;SDS011;68178;52.188;5.598;2023-03-14T13:27:32;8.35;;;1.83;;
19137;SDS011;68178;52.188;5.598;2023-03-14T13:30:04;6.10;;;1.42;;
19137;SDS011;68178;52.188;5.598;2023-03-14T13:32:30;6.63;;;1.42;;
19137;SDS011;68178;52.188;5.598;2023-03-14T13:34:56;9.80;;;1.95;;
19137;SDS011;68178;52.188;5.598;2023-03-14T13:37:23;7.15;;;1.50;;
19137;SDS011;68178;52.188;5.598;2023-03-14T13:39:50;7.38;;;1.75;;
19137;SDS011;68178;52.188;5.598;2023-03-14T13:42:16;6.38;;;1.80;;
19137;SDS011;68178;52.188;5.598;2023-03-14T13:44:42;8.75;;;1.65;;
19137;SDS011;68178;52.188;5.598;2023-03-14T13:47:18;9.43;;;2.05;;
19137;SDS011;68178;52.188;5.598;2023-03-14T13:49:48;5.05;;;1.73;;
19137;SDS011;68178;52.188;5.598;2023-03-14T13:54:54;5.82;;;1.75;;
19137;SDS011;68178;52.188;5.598;2023-03-14T13:57:20;4.13;;;1.30;;
19137;SDS011;68178;52.188;5.598;2023-03-14T13:59:57;5.18;;;1.70;;
19137;SDS011;68178;52.188;5.598;2023-03-14T14:02:24;5.85;;;1.85;;
19137;SDS011;68178;52.188;5.598;2023-03-14T14:04:51;5.82;;;1.63;;
19137;SDS011;68178;52.188;5.598;2023-03-14T14:07:17;5.85;;;2.28;;
19137;SDS011;68178;52.188;5.598;2023-03-14T14:09:50;6.38;;;1.70;;
19137;SDS011;68178;52.188;5.598;2023-03-14T14:12:18;4.22;;;1.38;;
19137;SDS011;68178;52.188;5.598;2023-03-14T14:14:52;6.47;;;1.83;;
19137;SDS011;68178;52.188;5.598;2023-03-14T14:17:24;5.88;;;1.58;;
19137;SDS011;68178;52.188;5.598;2023-03-14T14:19:51;7.30;;;1.40;;
19137;SDS011;68178;52.188;5.598;2023-03-14T14:22:18;7.30;;;1.25;;
19137;SDS011;68178;52.188;5.598;2023-03-14T14:24:45;5.18;;;1.58;;
19137;SDS011;68178;52.188;5.598;2023-03-14T14:27:15;10.18;;;1.98;;
19137;SDS011;68178;52.188;5.598;2023-03-14T14:29:42;4.65;;;1.17;;
19137;SDS011;68178;52.188;5.598;2023-03-14T14:34:44;5.95;;;1.27;;
19137;SDS011;68178;52.188;5.598;2023-03-14T14:37:26;5.93;;;1.80;;
19137;SDS011;68178;52.188;5.598;2023-03-14T14:39:57;8.05;;;1.70;;
19137;SDS011;68178;52.188;5.598;2023-03-14T14:42:27;10.63;;;1.65;;
19137;SDS011;68178;52.188;5.598;2023-03-14T14:44:55;5.78;;;1.20;;
19137;SDS011;68178;52.188;5.598;2023-03-14T14:47:22;14.52;;;1.73;;
19137;SDS011;68178;52.188;5.598;2023-03-14T14:49:49;6.72;;;1.35;;
19137;SDS011;68178;52.188;5.598;2023-03-14T14:52:19;7.78;;;1.77;;
19137;SDS011;68178;52.188;5.598;2023-03-14T14:54:51;9.75;;;1.77;;
19137;SDS011;68178;52.188;5.598;2023-03-14T14:57:33;10.38;;;1.92;;
19137;SDS011;68178;52.188;5.598;2023-03-14T15:00:09;5.78;;;1.70;;
19137;SDS011;68178;52.188;5.598;2023-03-14T15:02:39;5.88;;;1.52;;
19137;SDS011;68178;52.188;5.598;2023-03-14T15:05:15;7.15;;;1.88;;
19137;SDS011;68178;52.188;5.598;2023-03-14T15:07:41;8.40;;;1.90;;
19137;SDS011;68178;52.188;5.598;2023-03-14T15:10:15;9.10;;;2.22;;
19137;SDS011;68178;52.188;5.598;2023-03-14T15:12:41;11.05;;;1.65;;
19137;SDS011;68178;52.188;5.598;2023-03-14T15:15:08;4.30;;;1.38;;
19137;SDS011;68178;52.188;5.598;2023-03-14T15:17:34;4.88;;;1.55;;